Latest Weather Observations for Holsworthy

IDN60801

Issued at 2:02 pm EDT Tuesday 31 March 2015 (issued every 30 minutes, with the page automatically refreshed every 10 minutes)

About weather observations | Map of weather stations | Latest weather observations for NSW | Other Formats
Station Details ID: 066161 Name: HOLSWORTHY AERODROME AWS Lat: -33.99 Lon: 150.95 Height: 68.16 m
Data from the previous 72 hours. | See also: Recent months at Holsworthy
Date/Time
EDT
Temp
°C
App
Temp
°C
Dew
Point
Rel
Hum
%
Delta-T
°C
Wind Press
QNH
hPa
Press
MSL
hPa
Rain
since 9 am
mm
Dir
 
Spd
km/h
Gust
km/h
Spd
kts
Gust
kts
31/02:00pm 19.4 20.9 18.1 92 0.8 S 7 11 4 6 1025.7 1025.5 3.2
31/01:30pm 18.9 19.9 17.7 93 0.7 SSE 9 13 5 7 1026.2 1026.0 3.2
31/01:00pm 18.6 18.2 17.1 91 0.9 E 15 20 8 11 1026.6 1026.4 0.8
31/12:30pm 21.4 20.0 16.6 74 2.9 SE 19 24 10 13 1026.6 1026.4 0.0
31/12:00pm 22.7 21.9 16.0 66 4.0 SE 15 24 8 13 1026.5 1026.3 0.0
31/11:30am 22.2 21.4 16.0 68 3.7 SSE 15 22 8 12 1026.9 1026.7 0.0
31/11:00am 21.8 21.1 16.3 71 3.3 SSE 15 20 8 11 1027.0 1026.8 0.0
31/10:30am 21.8 21.3 17.0 74 2.9 SSE 15 20 8 11 1027.0 1026.8 0.0
31/10:00am 21.3 21.3 17.3 78 2.4 SE 13 17 7 9 1027.0 1026.8 0.0
31/09:30am 19.2 20.5 17.0 87 1.3 W 6 7 3 4 1026.8 1026.6 0.0
31/09:00am 17.1 17.7 15.8 92 0.8 W 7 9 4 5 1026.4 1026.2 0.0
31/08:30am 16.4 16.5 15.4 94 0.6 WSW 9 11 5 6 1026.2 1026.0 0.0
31/08:00am 16.1 16.4 15.1 94 0.6 WSW 7 9 4 5 1025.9 1025.7 0.0
31/07:30am 16.2 16.6 15.2 94 0.6 WSW 7 9 4 5 1025.5 1025.3 0.0
31/07:00am 16.4 18.1 15.3 93 0.6 CALM 0 0 0 0 1025.2 1025.0 0.0
31/06:30am 16.5 18.3 15.4 93 0.6 CALM 0 0 0 0 1024.9 1024.7 0.0
31/06:00am 16.6 18.4 15.5 93 0.6 CALM 0 0 0 0 1024.6 1024.4 0.0
31/05:30am 16.9 17.5 15.8 93 0.6 SW 7 9 4 5 1024.4 1024.2 0.0
31/05:00am 17.0 17.8 15.9 93 0.6 SSW 6 9 3 5 1024.4 1024.2 0.0
31/04:30am 17.0 17.6 15.7 92 0.8 SW 7 9 4 5 1024.5 1024.3 0.0
31/04:00am 17.0 17.2 15.7 92 0.8 SW 9 13 5 7 1024.8 1024.6 0.0
31/03:30am 17.0 17.2 15.7 92 0.8 SW 9 13 5 7 1025.0 1024.8 0.0
31/03:00am 17.2 17.4 15.7 91 0.9 WSW 9 11 5 6 1025.1 1024.9 0.0
31/02:30am 17.7 18.1 16.2 91 0.9 WSW 9 11 5 6 1025.4 1025.2 0.0
31/02:00am 18.0 19.0 16.3 90 1.0 SW 6 7 3 4 1025.5 1025.3 0.0
31/01:30am 18.0 19.4 16.3 90 1.0 WNW 4 7 2 4 1025.7 1025.5 0.0
31/01:00am 18.2 19.5 16.2 88 1.2 NE 4 7 2 4 1025.6 1025.4 0.0
31/12:30am 18.5 18.4 16.1 86 1.4 E 11 13 6 7 1025.5 1025.3 0.0
31/12:00am 18.8 18.9 16.4 86 1.4 SSE 11 15 6 8 1025.3 1025.1 0.0
 
Date/Time
EDT
Temp
°C
App
Temp
°C
Dew
Point
Rel
Hum
%
Delta-T
°C
Wind Press
QNH
hPa
Press
MSL
hPa
Rain
since 9 am
mm
Dir
 
Spd
km/h
Gust
km/h
Spd
kts
Gust
kts
30/11:30pm 18.9 19.3 16.3 85 1.6 SE 9 11 5 6 1025.6 1025.4 0.0
30/11:00pm 18.8 19.5 16.2 85 1.5 S 7 11 4 6 1025.5 1025.3 0.0
30/10:30pm 19.1 19.4 16.1 83 1.8 SSE 9 11 5 6 1025.4 1025.2 0.0
30/10:00pm 19.2 19.9 16.1 82 1.8 S 7 11 4 6 1025.4 1025.2 0.0
30/09:30pm 19.4 20.1 16.1 81 2.0 SSE 7 9 4 5 1025.5 1025.3 0.0
30/09:00pm 19.7 20.1 16.2 80 2.1 SE 9 9 5 5 1025.2 1025.0 0.0
30/08:30pm 20.1 20.4 16.1 78 2.4 SE 9 11 5 6 1025.1 1024.9 0.0
30/08:00pm 20.3 20.6 16.1 77 2.5 ESE 9 11 5 6 1024.8 1024.6 0.0
30/07:30pm 20.6 20.5 16.0 75 2.8 SE 11 13 6 7 1024.5 1024.3 0.0
30/07:00pm 21.0 21.2 15.8 72 3.1 ESE 9 13 5 7 1024.2 1024.0 0.0
30/06:30pm 21.2 21.5 16.0 72 3.1 E 9 13 5 7 1024.1 1023.9 0.0
30/06:00pm 21.6 21.1 15.9 70 3.4 ESE 13 22 7 12 1023.5 1023.3 0.0
30/05:30pm 22.1 20.6 14.2 61 4.6 E 15 22 8 12 1023.2 1023.0 0.0
30/05:00pm 22.2 20.5 14.8 63 4.4 E 17 24 9 13 1023.0 1022.8 0.0
30/04:30pm 22.8 21.2 16.1 66 4.1 E 19 24 10 13 1022.8 1022.6 0.0
30/04:00pm 23.8 21.8 13.9 54 5.8 ESE 17 24 9 13 1022.5 1022.3 0.0
30/03:30pm 23.9 21.7 13.2 51 6.2 E 17 22 9 12 1022.6 1022.4 0.0
30/03:00pm 23.6 21.9 12.6 50 6.3 E 13 19 7 10 1022.8 1022.6 0.0
30/02:30pm 23.7 23.5 14.7 57 5.4 ESE 9 17 5 9 1022.9 1022.7 0.0
30/02:00pm 22.2 21.8 14.1 60 4.7 E 9 13 5 7 1023.0 1022.8 0.0
30/01:30pm 21.7 21.2 13.9 61 4.5 ENE 9 15 5 8 1023.3 1023.1 0.0
30/01:00pm 20.9 21.9 14.3 66 3.8 SE 2 7 1 4 1023.7 1023.5 0.0
30/12:30pm 20.2 20.6 14.8 71 3.2 E 6 9 3 5 1023.9 1023.7 0.0
30/12:00pm 20.5 19.8 14.4 68 3.5 ENE 11 15 6 8 1024.4 1024.2 0.0
30/11:30am 21.2 19.5 14.6 66 3.9 SSE 17 20 9 11 1024.1 1023.9 0.0
30/11:00am 21.1 20.0 17.3 79 2.3 SE 19 32 10 17 1024.7 1024.5 0.0
30/10:30am 21.3 21.7 18.1 82 2.0 ENE 13 20 7 11 1024.7 1024.5 0.0
30/10:00am 20.9 22.4 17.7 82 2.0 SE 6 9 3 5 1024.3 1024.1 0.0
30/09:30am 20.1 20.5 17.3 84 1.7 S 11 15 6 8 1024.2 1024.0 0.0
30/09:00am 18.4 18.2 16.6 89 1.1 SSW 13 15 7 8 1024.5 1024.3 0.0
30/08:30am 17.3 16.7 15.6 90 1.0 SW 13 17 7 9 1024.5 1024.3 0.0
30/08:00am 16.6 16.6 15.1 91 0.9 WSW 9 13 5 7 1024.4 1024.2 0.0
30/07:30am 16.2 16.5 14.9 92 0.8 W 7 9 4 5 1024.0 1023.8 0.0
30/07:00am 16.1 16.5 14.8 92 0.7 WSW 6 9 3 5 1023.5 1023.3 0.0
30/06:30am 16.0 16.3 14.9 93 0.6 W 7 9 4 5 1023.2 1023.0 0.0
30/06:00am 16.2 16.5 14.9 92 0.7 W 7 9 4 5 1022.7 1022.5 0.0
30/05:30am 16.3 16.6 15.0 92 0.8 WSW 7 9 4 5 1022.3 1022.1 0.0
30/05:00am 16.3 16.6 15.0 92 0.7 WSW 7 11 4 6 1022.1 1021.9 0.0
30/04:30am 16.4 16.9 15.1 92 0.8 WSW 6 7 3 4 1022.0 1021.8 0.0
30/04:00am 16.2 16.5 14.9 92 0.7 WSW 7 9 4 5 1022.0 1021.8 0.0
30/03:30am 16.2 16.4 14.6 90 0.9 WSW 7 7 4 4 1022.1 1021.9 0.0
30/03:00am 16.5 16.8 14.5 88 1.1 SSW 6 6 3 3 1022.2 1022.0 0.0
30/02:30am 16.8 17.0 14.3 85 1.4 SW 6 7 3 4 1022.5 1022.3 0.0
30/02:00am 17.8 18.2 15.4 86 1.4 S 7 9 4 5 1022.6 1022.4 0.0
30/01:30am 17.8 18.5 16.0 89 1.1 S 7 11 4 6 1022.8 1022.6 0.0
30/01:00am 17.3 17.6 14.9 86 1.4 S 7 9 4 5 1023.0 1022.8 0.0
30/12:30am 17.6 17.7 15.4 87 1.3 S 9 11 5 6 1023.0 1022.8 0.0
30/12:00am 17.0 17.3 14.6 86 1.4 S 6 9 3 5 1023.3 1023.1 0.0
 
Date/Time
EDT
Temp
°C
App
Temp
°C
Dew
Point
Rel
Hum
%
Delta-T
°C
Wind Press
QNH
hPa
Press
MSL
hPa
Rain
since 9 am
mm
Dir
 
Spd
km/h
Gust
km/h
Spd
kts
Gust
kts
29/11:30pm 17.5 19.2 15.3 87 1.3 CALM 0 0 0 0 1023.3 1023.1 0.0
29/11:00pm 17.6 19.4 15.4 87 1.3 CALM 0 0 0 0 1023.4 1023.2 0.0
29/10:30pm 17.6 19.3 15.2 86 1.4 CALM 0 0 0 0 1023.5 1023.3 0.0
29/10:00pm 17.7 19.4 15.3 86 1.4 CALM 0 0 0 0 1023.2 1023.0 0.0
29/09:30pm 18.4 18.9 15.1 81 1.9 SE 6 6 3 3 1022.9 1022.7 0.0
29/09:00pm 19.2 19.8 15.7 80 2.1 SE 7 9 4 5 1022.4 1022.2 0.0
29/08:30pm 19.8 20.4 15.7 77 2.4 E 7 13 4 7 1022.2 1022.0 0.0
29/08:00pm 20.1 20.7 15.7 76 2.6 ENE 7 11 4 6 1021.9 1021.7 0.0
29/07:30pm 20.3 20.5 15.7 75 2.7 ENE 9 13 5 7 1021.6 1021.4 0.0
29/07:00pm 20.8 20.6 15.8 73 3.0 ENE 11 15 6 8 1021.2 1021.0 0.0
29/06:30pm 21.7 21.2 15.8 69 3.5 ENE 13 19 7 10 1021.1 1020.9 0.0
29/06:00pm 22.0 21.1 15.8 68 3.7 ENE 15 19 8 10 1020.8 1020.6 0.0
29/05:30pm 22.5 21.5 15.6 65 4.1 ENE 15 24 8 13 1020.4 1020.1 0.0
29/05:00pm 23.1 21.8 15.7 63 4.5 ENE 17 24 9 13 1020.6 1020.4 0.0
29/04:30pm 24.6 23.6 14.7 54 5.9 ENE 13 20 7 11 1020.6 1020.4 0.0
29/04:00pm 25.8 25.1 10.0 37 8.7 NNW 4 11 2 6 1020.7 1020.5 0.0
29/03:30pm 26.5 25.8 10.2 36 9.1 NW 4 15 2 8 1020.7 1020.5 0.0
29/03:00pm 26.0 24.6 11.0 39 8.5 NNW 9 15 5 8 1021.0 1020.8 0.0
29/02:30pm 24.9 23.2 11.1 42 7.8 N 11 19 6 10 1021.0 1020.8 0.0
29/02:00pm 25.3 24.0 12.5 45 7.4 NE 11 26 6 14 1021.5 1021.3 0.0
29/01:30pm 24.3 23.1 11.6 45 7.2 NNW 9 17 5 9 1021.9 1021.7 0.0
29/01:00pm 23.8 22.0 13.4 52 6.0 NNE 15 22 8 12 1022.4 1022.2 0.0
29/12:30pm 22.5 20.6 13.0 55 5.5 N 15 22 8 12 1023.0 1022.8 0.0
29/12:00pm 22.5 21.2 13.6 57 5.2 N 13 20 7 11 1023.2 1023.0 0.0
29/11:30am 21.9 21.0 13.8 60 4.7 NNW 11 20 6 11 1023.5 1023.3 0.0
29/11:00am 20.5 20.0 13.7 65 3.9 NNW 9 13 5 7 1023.6 1023.4 0.0
29/10:30am 18.4 17.5 12.6 69 3.2 W 9 15 5 8 1024.2 1024.0 0.0
29/10:00am 17.4 16.1 12.5 73 2.7 WNW 11 15 6 8 1024.2 1024.0 0.0
29/09:30am 16.2 17.2 13.3 83 1.6 CALM 0 0 0 0 1023.8 1023.6 0.0
29/09:00am 14.4 15.3 12.8 90 0.9 CALM 0 0 0 0 1023.6 1023.4 0.0
29/08:30am 13.2 13.9 12.3 94 0.5 CALM 0 0 0 0 1023.3 1023.1 0.0
29/08:00am 12.2 11.5 11.3 94 0.5 SW 6 7 3 4 1023.1 1022.9 0.0
29/07:30am 11.2 10.0 10.3 94 0.5 WSW 7 9 4 5 1023.2 1023.0 0.0
29/07:00am 11.0 11.1 10.1 94 0.5 CALM 0 0 0 0 1022.7 1022.5 0.0
29/06:30am 11.3 11.5 10.4 94 0.5 CALM 0 6 0 3 1022.4 1022.2 0.0
29/06:00am 10.7 9.9 9.6 93 0.6 W 4 7 2 4 1022.2 1022.0 0.0
29/05:30am 10.9 11.0 10.0 94 0.5 CALM 0 0 0 0 1022.2 1022.0 0.0
29/05:00am 10.6 10.5 9.5 93 0.6 CALM 0 0 0 0 1022.3 1022.1 0.0
29/04:30am 11.0 9.9 9.9 93 0.6 SW 6 9 3 5 1022.2 1022.0 0.0
29/04:00am 11.7 10.8 10.6 93 0.6 SW 6 6 3 3 1022.2 1022.0 0.0
29/03:30am 11.4 11.5 10.3 93 0.6 CALM 0 0 0 0 1022.4 1022.2 0.0
29/03:00am 11.4 11.5 10.1 92 0.7 CALM 0 0 0 0 1022.6 1022.4 0.0
29/02:30am 11.9 12.0 10.3 90 0.8 CALM 0 0 0 0 1022.7 1022.5 0.0
29/02:00am 13.0 12.6 11.2 89 0.9 S 4 7 2 4 1022.8 1022.6 0.0
29/01:30am 12.6 11.8 11.2 91 0.7 S 6 6 3 3 1023.1 1022.9 0.0
29/01:00am 12.2 11.3 10.8 91 0.7 SW 6 6 3 3 1023.3 1023.1 0.0
29/12:30am 12.6 11.8 11.0 90 0.8 SW 6 6 3 3 1023.5 1023.3 0.0
29/12:00am 12.7 13.0 10.8 88 1.0 CALM 0 0 0 0 1023.6 1023.4 0.0
 
Date/Time
EDT
Temp
°C
App
Temp
°C
Dew
Point
Rel
Hum
%
Delta-T
°C
Wind Press
QNH
hPa
Press
MSL
hPa
Rain
since 9 am
mm
Dir
 
Spd
km/h
Gust
km/h
Spd
kts
Gust
kts
28/11:30pm 13.1 12.2 10.6 85 1.3 SW 6 7 3 4 1023.8 1023.6 0.0
28/11:00pm 13.9 13.0 10.7 81 1.7 SSE 6 6 3 3 1023.9 1023.7 0.0
28/10:30pm 14.6 13.9 11.4 81 1.7 SW 6 7 3 4 1024.0 1023.8 0.0
28/10:00pm 14.8 14.5 11.4 80 1.8 SSE 4 7 2 4 1024.1 1023.9 0.0
28/09:30pm 15.5 14.8 11.3 76 2.3 SSE 6 7 3 4 1024.0 1023.8 0.0
28/09:00pm 15.2 14.3 11.4 78 2.0 S 7 9 4 5 1023.6 1023.4 0.0
28/08:30pm 15.5 14.7 10.9 74 2.5 SSE 6 7 3 4 1023.4 1023.2 0.0
28/08:00pm 16.9 15.6 11.4 70 3.0 SE 9 9 5 5 1023.0 1022.8 0.0
28/07:30pm 17.8 16.6 11.6 67 3.4 SE 9 11 5 6 1022.8 1022.6 0.0
28/07:00pm 18.5 16.4 11.3 63 3.9 SE 13 17 7 9 1022.5 1022.3 0.0
28/06:30pm 19.4 16.5 10.9 58 4.6 SE 17 22 9 12 1022.3 1022.1 0.0
28/06:00pm 20.2 17.3 10.9 55 5.1 ESE 17 22 9 12 1022.0 1021.8 0.0
28/05:30pm 20.7 17.5 11.1 54 5.3 ESE 19 26 10 14 1021.8 1021.6 0.0
28/05:00pm 21.3 18.1 11.1 52 5.6 SE 19 26 10 14 1021.6 1021.4 0.0
28/04:30pm 21.5 18.5 10.6 50 6.0 SE 17 26 9 14 1021.6 1021.4 0.0
28/04:00pm 21.5 17.8 10.3 49 6.1 SE 20 28 11 15 1021.5 1021.3 0.0
28/03:30pm 21.3 18.1 11.3 53 5.6 ESE 19 30 10 16 1021.8 1021.6 0.0
28/03:00pm 21.8 18.3 10.3 48 6.3 SE 19 26 10 14 1021.9 1021.7 0.0
28/02:30pm 21.2 17.6 9.8 48 6.2 SE 19 26 10 14 1022.1 1021.9 0.0

Other Formats:

Comma delimited format used in spreadsheet applications
http://www.bom.gov.au/fwo/IDN60801/IDN60801.95761.axf

JavaScript Object Notation format (JSON) in row-major order
http://www.bom.gov.au/fwo/IDN60801/IDN60801.95761.json